sensor_id;sensor_type;location;lat;lon;timestamp;temperature;humidity
29255;DHT22;16277;48.890;2.306;2023-12-28T00:06:02;13.90;99.90
29255;DHT22;16277;48.890;2.306;2023-12-28T00:21:07;14.20;99.90
29255;DHT22;16277;48.890;2.306;2023-12-28T00:36:11;14.00;99.90
29255;DHT22;16277;48.890;2.306;2023-12-28T00:51:16;14.10;99.90
29255;DHT22;16277;48.890;2.306;2023-12-28T01:06:20;13.80;99.90
29255;DHT22;16277;48.890;2.306;2023-12-28T01:21:25;14.00;99.90
29255;DHT22;16277;48.890;2.306;2023-12-28T01:36:31;14.10;99.90
29255;DHT22;16277;48.890;2.306;2023-12-28T01:51:36;14.00;99.90
29255;DHT22;16277;48.890;2.306;2023-12-28T02:06:42;14.20;99.90
29255;DHT22;16277;48.890;2.306;2023-12-28T02:21:47;14.00;99.90
29255;DHT22;16277;48.890;2.306;2023-12-28T02:36:52;14.00;99.90
29255;DHT22;16277;48.890;2.306;2023-12-28T02:51:58;14.00;99.90
29255;DHT22;16277;48.890;2.306;2023-12-28T03:07:03;13.80;99.90
29255;DHT22;16277;48.890;2.306;2023-12-28T03:22:08;13.90;99.90
29255;DHT22;16277;48.890;2.306;2023-12-28T03:37:12;14.10;99.90
29255;DHT22;16277;48.890;2.306;2023-12-28T03:52:17;13.70;99.90
29255;DHT22;16277;48.890;2.306;2023-12-28T04:07:21;13.90;99.90
29255;DHT22;16277;48.890;2.306;2023-12-28T04:22:26;13.80;99.90
29255;DHT22;16277;48.890;2.306;2023-12-28T04:37:31;13.70;99.90
29255;DHT22;16277;48.890;2.306;2023-12-28T04:52:38;13.70;99.90
29255;DHT22;16277;48.890;2.306;2023-12-28T05:07:44;13.60;99.90
29255;DHT22;16277;48.890;2.306;2023-12-28T05:22:48;13.70;99.90
29255;DHT22;16277;48.890;2.306;2023-12-28T05:37:53;13.80;99.90
29255;DHT22;16277;48.890;2.306;2023-12-28T05:52:58;13.70;99.90
29255;DHT22;16277;48.890;2.306;2023-12-28T06:08:03;13.60;99.90
29255;DHT22;16277;48.890;2.306;2023-12-28T06:23:08;13.50;99.90
29255;DHT22;16277;48.890;2.306;2023-12-28T06:38:12;13.40;99.90
29255;DHT22;16277;48.890;2.306;2023-12-28T06:53:17;13.60;99.90
29255;DHT22;16277;48.890;2.306;2023-12-28T07:08:21;13.60;99.90
29255;DHT22;16277;48.890;2.306;2023-12-28T07:23:26;13.60;99.90
29255;DHT22;16277;48.890;2.306;2023-12-28T07:38:31;13.50;99.90
29255;DHT22;16277;48.890;2.306;2023-12-28T07:53:35;13.80;99.90
29255;DHT22;16277;48.890;2.306;2023-12-28T08:08:40;13.70;99.90
29255;DHT22;16277;48.890;2.306;2023-12-28T08:23:45;13.60;99.90
29255;DHT22;16277;48.890;2.306;2023-12-28T08:38:49;13.60;99.90
29255;DHT22;16277;48.890;2.306;2023-12-28T08:53:54;13.60;99.90
29255;DHT22;16277;48.890;2.306;2023-12-28T09:08:59;13.60;99.90
29255;DHT22;16277;48.890;2.306;2023-12-28T09:24:03;13.70;99.90
29255;DHT22;16277;48.890;2.306;2023-12-28T09:39:08;13.70;99.90
29255;DHT22;16277;48.890;2.306;2023-12-28T09:54:13;13.70;99.90
29255;DHT22;16277;48.890;2.306;2023-12-28T10:09:17;14.00;99.90
29255;DHT22;16277;48.890;2.306;2023-12-28T10:24:21;14.20;99.90
29255;DHT22;16277;48.890;2.306;2023-12-28T10:39:27;14.00;99.90
29255;DHT22;16277;48.890;2.306;2023-12-28T10:54:56;14.10;99.90
29255;DHT22;16277;48.890;2.306;2023-12-28T11:10:03;14.20;99.90
29255;DHT22;16277;48.890;2.306;2023-12-28T11:25:16;14.30;99.90
29255;DHT22;16277;48.890;2.306;2023-12-28T11:40:21;14.20;99.90
29255;DHT22;16277;48.890;2.306;2023-12-28T11:55:26;14.20;99.90
29255;DHT22;16277;48.890;2.306;2023-12-28T12:10:31;14.20;99.90
29255;DHT22;16277;48.890;2.306;2023-12-28T12:25:36;14.40;99.90
29255;DHT22;16277;48.890;2.306;2023-12-28T12:40:41;14.60;99.90
29255;DHT22;16277;48.890;2.306;2023-12-28T12:55:46;14.40;99.90
29255;DHT22;16277;48.890;2.306;2023-12-28T13:10:50;14.60;99.90
29255;DHT22;16277;48.890;2.306;2023-12-28T13:25:55;14.80;99.90
29255;DHT22;16277;48.890;2.306;2023-12-28T13:41:18;14.60;99.90
29255;DHT22;16277;48.890;2.306;2023-12-28T13:56:22;14.70;99.90
29255;DHT22;16277;48.890;2.306;2023-12-28T14:11:26;14.80;99.90
29255;DHT22;16277;48.890;2.306;2023-12-28T14:26:31;14.70;99.90
29255;DHT22;16277;48.890;2.306;2023-12-28T14:41:37;14.60;99.90
29255;DHT22;16277;48.890;2.306;2023-12-28T14:56:46;14.60;99.90
29255;DHT22;16277;48.890;2.306;2023-12-28T15:11:58;14.70;99.90
29255;DHT22;16277;48.890;2.306;2023-12-28T15:27:04;14.70;99.90
29255;DHT22;16277;48.890;2.306;2023-12-28T15:42:10;14.70;99.90
29255;DHT22;16277;48.890;2.306;2023-12-28T15:57:15;14.60;99.90
29255;DHT22;16277;48.890;2.306;2023-12-28T16:12:19;14.70;99.90
29255;DHT22;16277;48.890;2.306;2023-12-28T16:27:23;14.50;99.90
29255;DHT22;16277;48.890;2.306;2023-12-28T16:42:28;14.60;99.90
29255;DHT22;16277;48.890;2.306;2023-12-28T16:57:32;14.50;99.90
29255;DHT22;16277;48.890;2.306;2023-12-28T17:12:38;14.60;99.90
29255;DHT22;16277;48.890;2.306;2023-12-28T17:27:49;14.30;99.90
29255;DHT22;16277;48.890;2.306;2023-12-28T17:42:58;14.50;99.90
29255;DHT22;16277;48.890;2.306;2023-12-28T17:58:05;14.30;99.90
29255;DHT22;16277;48.890;2.306;2023-12-28T18:13:10;14.30;99.90
29255;DHT22;16277;48.890;2.306;2023-12-28T18:28:14;14.10;99.90
29255;DHT22;16277;48.890;2.306;2023-12-28T18:43:19;14.00;99.90
29255;DHT22;16277;48.890;2.306;2023-12-28T18:58:23;13.80;99.90
29255;DHT22;16277;48.890;2.306;2023-12-28T19:13:28;14.10;99.90
29255;DHT22;16277;48.890;2.306;2023-12-28T19:28:32;13.90;99.90
29255;DHT22;16277;48.890;2.306;2023-12-28T19:43:37;13.80;99.90
29255;DHT22;16277;48.890;2.306;2023-12-28T19:58:41;13.80;99.90
29255;DHT22;16277;48.890;2.306;2023-12-28T20:13:46;13.70;99.90
29255;DHT22;16277;48.890;2.306;2023-12-28T20:28:51;13.60;99.90
29255;DHT22;16277;48.890;2.306;2023-12-28T20:43:56;13.80;99.90
29255;DHT22;16277;48.890;2.306;2023-12-28T20:59:00;13.60;99.90
29255;DHT22;16277;48.890;2.306;2023-12-28T21:14:05;13.70;99.90
29255;DHT22;16277;48.890;2.306;2023-12-28T21:29:10;13.50;99.90
29255;DHT22;16277;48.890;2.306;2023-12-28T21:44:17;13.60;99.90
29255;DHT22;16277;48.890;2.306;2023-12-28T21:59:22;13.50;99.90
29255;DHT22;16277;48.890;2.306;2023-12-28T22:14:27;13.40;99.90
29255;DHT22;16277;48.890;2.306;2023-12-28T22:29:32;13.40;99.90
29255;DHT22;16277;48.890;2.306;2023-12-28T22:44:36;13.40;99.90
29255;DHT22;16277;48.890;2.306;2023-12-28T22:59:42;13.40;99.90
29255;DHT22;16277;48.890;2.306;2023-12-28T23:14:47;13.40;99.90
29255;DHT22;16277;48.890;2.306;2023-12-28T23:29:51;13.40;99.90
29255;DHT22;16277;48.890;2.306;2023-12-28T23:44:56;13.20;99.90
